sensor_id;sensor_type;location;lat;lon;timestamp;pressure;altitude;pressure_sealevel;temperature;humidity
21644;BME280;10983;51.982;9.226;2024-02-26T00:00:40;98587.81;;;-0.82;100.00
21644;BME280;10983;51.982;9.226;2024-02-26T00:03:07;98593.28;;;-0.64;100.00
21644;BME280;10983;51.982;9.226;2024-02-26T00:05:35;98588.47;;;-0.61;100.00
21644;BME280;10983;51.982;9.226;2024-02-26T00:08:05;98588.31;;;-0.53;100.00
21644;BME280;10983;51.982;9.226;2024-02-26T00:10:32;98598.31;;;-0.57;100.00
21644;BME280;10983;51.982;9.226;2024-02-26T00:12:59;98592.09;;;-0.62;100.00
21644;BME280;10983;51.982;9.226;2024-02-26T00:15:28;98586.47;;;-0.59;100.00
21644;BME280;10983;51.982;9.226;2024-02-26T00:17:56;98591.66;;;-0.65;100.00
21644;BME280;10983;51.982;9.226;2024-02-26T00:20:24;98593.13;;;-0.44;100.00
21644;BME280;10983;51.982;9.226;2024-02-26T00:22:51;98590.50;;;-0.50;100.00
21644;BME280;10983;51.982;9.226;2024-02-26T00:25:19;98592.28;;;-0.63;100.00
21644;BME280;10983;51.982;9.226;2024-02-26T00:27:47;98593.66;;;-0.67;100.00
21644;BME280;10983;51.982;9.226;2024-02-26T00:30:14;98597.50;;;-0.63;100.00
21644;BME280;10983;51.982;9.226;2024-02-26T00:32:43;98600.09;;;-0.63;100.00
21644;BME280;10983;51.982;9.226;2024-02-26T00:35:11;98599.28;;;-0.70;100.00
21644;BME280;10983;51.982;9.226;2024-02-26T00:37:39;98598.28;;;-0.63;100.00
21644;BME280;10983;51.982;9.226;2024-02-26T00:40:07;98601.91;;;-0.64;100.00
21644;BME280;10983;51.982;9.226;2024-02-26T00:42:36;98596.31;;;-0.61;100.00
21644;BME280;10983;51.982;9.226;2024-02-26T00:45:04;98596.69;;;-0.57;100.00
21644;BME280;10983;51.982;9.226;2024-02-26T00:47:32;98597.75;;;-0.39;100.00
21644;BME280;10983;51.982;9.226;2024-02-26T00:50:01;98601.19;;;-0.26;100.00
21644;BME280;10983;51.982;9.226;2024-02-26T00:52:29;98602.63;;;-0.17;100.00
21644;BME280;10983;51.982;9.226;2024-02-26T00:54:57;98606.69;;;0.24;100.00
21644;BME280;10983;51.982;9.226;2024-02-26T00:57:26;98608.06;;;0.14;100.00
21644;BME280;10983;51.982;9.226;2024-02-26T00:59:54;98599.63;;;-0.01;100.00
21644;BME280;10983;51.982;9.226;2024-02-26T01:02:22;98605.25;;;-0.10;100.00
21644;BME280;10983;51.982;9.226;2024-02-26T01:04:50;98599.41;;;-0.12;100.00
21644;BME280;10983;51.982;9.226;2024-02-26T01:07:19;98595.19;;;-0.13;100.00
21644;BME280;10983;51.982;9.226;2024-02-26T01:09:47;98589.97;;;-0.20;100.00
21644;BME280;10983;51.982;9.226;2024-02-26T01:12:14;98580.09;;;-0.24;100.00
21644;BME280;10983;51.982;9.226;2024-02-26T01:14:42;98590.34;;;-0.23;100.00
21644;BME280;10983;51.982;9.226;2024-02-26T01:17:09;98582.53;;;-0.10;100.00
21644;BME280;10983;51.982;9.226;2024-02-26T01:19:37;98590.19;;;0.04;100.00
21644;BME280;10983;51.982;9.226;2024-02-26T01:22:04;98584.75;;;-0.01;100.00
21644;BME280;10983;51.982;9.226;2024-02-26T01:24:33;98584.97;;;-0.02;100.00
21644;BME280;10983;51.982;9.226;2024-02-26T01:27:00;98587.75;;;-0.16;100.00
21644;BME280;10983;51.982;9.226;2024-02-26T01:29:28;98583.53;;;-0.11;100.00
21644;BME280;10983;51.982;9.226;2024-02-26T01:31:55;98573.88;;;-0.23;100.00
21644;BME280;10983;51.982;9.226;2024-02-26T01:34:22;98567.66;;;-0.22;100.00
21644;BME280;10983;51.982;9.226;2024-02-26T01:36:50;98568.44;;;-0.28;100.00
21644;BME280;10983;51.982;9.226;2024-02-26T01:39:18;98566.06;;;-0.23;100.00
21644;BME280;10983;51.982;9.226;2024-02-26T01:41:48;98568.47;;;-0.22;100.00
21644;BME280;10983;51.982;9.226;2024-02-26T01:44:17;98568.69;;;-0.10;100.00
21644;BME280;10983;51.982;9.226;2024-02-26T01:46:44;98566.88;;;0.03;100.00
21644;BME280;10983;51.982;9.226;2024-02-26T01:49:12;98562.47;;;0.10;100.00
21644;BME280;10983;51.982;9.226;2024-02-26T01:51:41;98560.03;;;-0.17;100.00
21644;BME280;10983;51.982;9.226;2024-02-26T01:54:10;98568.06;;;-0.12;100.00
21644;BME280;10983;51.982;9.226;2024-02-26T01:56:39;98565.06;;;0.03;100.00
21644;BME280;10983;51.982;9.226;2024-02-26T01:59:08;98560.03;;;-0.04;100.00
21644;BME280;10983;51.982;9.226;2024-02-26T02:01:36;98564.84;;;0.05;100.00
21644;BME280;10983;51.982;9.226;2024-02-26T02:04:06;98552.63;;;0.05;100.00
21644;BME280;10983;51.982;9.226;2024-02-26T02:06:34;98547.97;;;0.01;100.00
21644;BME280;10983;51.982;9.226;2024-02-26T02:09:03;98553.81;;;-0.03;100.00
21644;BME280;10983;51.982;9.226;2024-02-26T02:11:32;98551.41;;;-0.18;100.00
21644;BME280;10983;51.982;9.226;2024-02-26T02:14:00;98553.41;;;-0.07;100.00
21644;BME280;10983;51.982;9.226;2024-02-26T02:16:29;98548.38;;;-0.15;100.00
21644;BME280;10983;51.982;9.226;2024-02-26T02:18:58;98549.59;;;0.02;100.00
21644;BME280;10983;51.982;9.226;2024-02-26T02:21:27;98548.19;;;-0.01;100.00
21644;BME280;10983;51.982;9.226;2024-02-26T02:23:54;98542.56;;;0.02;100.00
21644;BME280;10983;51.982;9.226;2024-02-26T02:26:22;98547.97;;;0.01;100.00
21644;BME280;10983;51.982;9.226;2024-02-26T02:28:49;98542.75;;;0.01;100.00
21644;BME280;10983;51.982;9.226;2024-02-26T02:31:17;98541.75;;;0.08;100.00
21644;BME280;10983;51.982;9.226;2024-02-26T02:33:45;98544.97;;;0.10;100.00
21644;BME280;10983;51.982;9.226;2024-02-26T02:36:15;98553.00;;;0.28;100.00
21644;BME280;10983;51.982;9.226;2024-02-26T02:38:50;98556.81;;;0.39;100.00
21644;BME280;10983;51.982;9.226;2024-02-26T02:41:18;98556.78;;;0.52;100.00
21644;BME280;10983;51.982;9.226;2024-02-26T02:43:45;98569.22;;;0.62;100.00
21644;BME280;10983;51.982;9.226;2024-02-26T02:46:13;98565.78;;;0.75;100.00
21644;BME280;10983;51.982;9.226;2024-02-26T02:48:41;98576.59;;;0.91;100.00
21644;BME280;10983;51.982;9.226;2024-02-26T02:51:09;98574.59;;;0.87;100.00
21644;BME280;10983;51.982;9.226;2024-02-26T02:53:37;98577.59;;;0.90;100.00
21644;BME280;10983;51.982;9.226;2024-02-26T02:56:06;98574.53;;;1.06;100.00
21644;BME280;10983;51.982;9.226;2024-02-26T02:58:34;98578.72;;;1.13;100.00
21644;BME280;10983;51.982;9.226;2024-02-26T03:01:01;98576.28;;;1.18;100.00
21644;BME280;10983;51.982;9.226;2024-02-26T03:03:29;98578.50;;;1.21;100.00
21644;BME280;10983;51.982;9.226;2024-02-26T03:05:56;98574.44;;;1.25;100.00
21644;BME280;10983;51.982;9.226;2024-02-26T03:08:24;98575.97;;;1.39;100.00
21644;BME280;10983;51.982;9.226;2024-02-26T03:10:52;98583.59;;;1.47;100.00
21644;BME280;10983;51.982;9.226;2024-02-26T03:13:21;98574.94;;;1.47;100.00
21644;BME280;10983;51.982;9.226;2024-02-26T03:15:49;98575.72;;;1.54;100.00
21644;BME280;10983;51.982;9.226;2024-02-26T03:18:16;98578.66;;;1.64;100.00
21644;BME280;10983;51.982;9.226;2024-02-26T03:20:44;98578.25;;;1.67;100.00
21644;BME280;10983;51.982;9.226;2024-02-26T03:23:11;98575.03;;;1.65;100.00
21644;BME280;10983;51.982;9.226;2024-02-26T03:25:41;98573.09;;;1.54;100.00
21644;BME280;10983;51.982;9.226;2024-02-26T03:28:09;98579.06;;;1.67;100.00
21644;BME280;10983;51.982;9.226;2024-02-26T03:30:38;98581.88;;;1.66;100.00
21644;BME280;10983;51.982;9.226;2024-02-26T03:33:05;98575.09;;;1.52;100.00
21644;BME280;10983;51.982;9.226;2024-02-26T03:35:33;98585.28;;;1.66;100.00
21644;BME280;10983;51.982;9.226;2024-02-26T03:38:01;98583.50;;;1.67;100.00
21644;BME280;10983;51.982;9.226;2024-02-26T03:40:29;98582.22;;;1.75;100.00
21644;BME280;10983;51.982;9.226;2024-02-26T03:42:57;98580.25;;;1.71;100.00
21644;BME280;10983;51.982;9.226;2024-02-26T03:45:24;98583.66;;;1.71;100.00
21644;BME280;10983;51.982;9.226;2024-02-26T03:47:53;98593.34;;;1.71;100.00
21644;BME280;10983;51.982;9.226;2024-02-26T03:50:21;98584.84;;;1.75;100.00
21644;BME280;10983;51.982;9.226;2024-02-26T03:52:49;98590.44;;;1.85;100.00
21644;BME280;10983;51.982;9.226;2024-02-26T03:55:16;98589.06;;;1.76;100.00
21644;BME280;10983;51.982;9.226;2024-02-26T03:57:47;98590.81;;;1.82;100.00
21644;BME280;10983;51.982;9.226;2024-02-26T04:00:15;98589.38;;;1.86;100.00
21644;BME280;10983;51.982;9.226;2024-02-26T04:02:43;98593.75;;;1.99;100.00
21644;BME280;10983;51.982;9.226;2024-02-26T04:05:13;98588.91;;;1.96;100.00
21644;BME280;10983;51.982;9.226;2024-02-26T04:07:40;98589.84;;;2.08;100.00
21644;BME280;10983;51.982;9.226;2024-02-26T04:10:09;98593.63;;;2.12;100.00
21644;BME280;10983;51.982;9.226;2024-02-26T04:12:39;98593.44;;;2.13;100.00
21644;BME280;10983;51.982;9.226;2024-02-26T04:15:09;98591.59;;;2.20;100.00
21644;BME280;10983;51.982;9.226;2024-02-26T04:17:37;98597.41;;;2.22;100.00
21644;BME280;10983;51.982;9.226;2024-02-26T04:20:06;98590.50;;;2.27;100.00
21644;BME280;10983;51.982;9.226;2024-02-26T04:22:35;98586.00;;;2.34;100.00
21644;BME280;10983;51.982;9.226;2024-02-26T04:25:03;98594.28;;;2.31;100.00
21644;BME280;10983;51.982;9.226;2024-02-26T04:27:31;98590.94;;;2.24;100.00
21644;BME280;10983;51.982;9.226;2024-02-26T04:29:58;98593.06;;;2.34;100.00
21644;BME280;10983;51.982;9.226;2024-02-26T04:32:26;98588.44;;;2.36;100.00
21644;BME280;10983;51.982;9.226;2024-02-26T04:34:54;98599.69;;;2.36;100.00
21644;BME280;10983;51.982;9.226;2024-02-26T04:37:21;98597.88;;;2.37;100.00
21644;BME280;10983;51.982;9.226;2024-02-26T04:39:50;98596.69;;;2.33;100.00
21644;BME280;10983;51.982;9.226;2024-02-26T04:42:18;98593.41;;;2.44;100.00
21644;BME280;10983;51.982;9.226;2024-02-26T04:44:45;98597.47;;;2.40;100.00
21644;BME280;10983;51.982;9.226;2024-02-26T04:47:13;98595.47;;;2.35;100.00
21644;BME280;10983;51.982;9.226;2024-02-26T04:49:40;98605.22;;;2.28;100.00
21644;BME280;10983;51.982;9.226;2024-02-26T04:52:08;98602.84;;;2.45;100.00
21644;BME280;10983;51.982;9.226;2024-02-26T04:54:35;98595.16;;;2.50;100.00
21644;BME280;10983;51.982;9.226;2024-02-26T04:57:04;98601.56;;;2.54;100.00
21644;BME280;10983;51.982;9.226;2024-02-26T04:59:32;98592.97;;;2.47;100.00
21644;BME280;10983;51.982;9.226;2024-02-26T05:01:59;98595.81;;;2.45;100.00
21644;BME280;10983;51.982;9.226;2024-02-26T05:04:27;98599.22;;;2.46;100.00
21644;BME280;10983;51.982;9.226;2024-02-26T05:06:54;98606.81;;;2.54;100.00
21644;BME280;10983;51.982;9.226;2024-02-26T05:09:22;98602.13;;;2.56;100.00
21644;BME280;10983;51.982;9.226;2024-02-26T05:11:50;98600.34;;;2.74;100.00
21644;BME280;10983;51.982;9.226;2024-02-26T05:14:19;98599.84;;;2.83;100.00
21644;BME280;10983;51.982;9.226;2024-02-26T05:16:46;98593.91;;;2.94;100.00
21644;BME280;10983;51.982;9.226;2024-02-26T05:19:14;98613.94;;;3.07;100.00
21644;BME280;10983;51.982;9.226;2024-02-26T05:21:42;98606.44;;;2.92;100.00
21644;BME280;10983;51.982;9.226;2024-02-26T05:24:10;98615.47;;;2.96;100.00
21644;BME280;10983;51.982;9.226;2024-02-26T05:26:38;98609.28;;;3.09;100.00
21644;BME280;10983;51.982;9.226;2024-02-26T05:29:05;98613.28;;;3.29;100.00
21644;BME280;10983;51.982;9.226;2024-02-26T05:31:34;98614.81;;;3.36;100.00
21644;BME280;10983;51.982;9.226;2024-02-26T05:34:01;98621.59;;;3.44;100.00
21644;BME280;10983;51.982;9.226;2024-02-26T05:36:29;98621.38;;;3.45;100.00
21644;BME280;10983;51.982;9.226;2024-02-26T05:38:59;98613.41;;;3.52;100.00
21644;BME280;10983;51.982;9.226;2024-02-26T05:41:27;98617.44;;;3.54;100.00
21644;BME280;10983;51.982;9.226;2024-02-26T05:43:55;98611.81;;;3.51;100.00
21644;BME280;10983;51.982;9.226;2024-02-26T05:46:22;98613.41;;;3.52;100.00
21644;BME280;10983;51.982;9.226;2024-02-26T05:48:52;98615.22;;;3.51;100.00
21644;BME280;10983;51.982;9.226;2024-02-26T05:51:21;98615.19;;;3.40;100.00
21644;BME280;10983;51.982;9.226;2024-02-26T05:53:50;98614.72;;;3.43;100.00
21644;BME280;10983;51.982;9.226;2024-02-26T05:56:21;98611.97;;;3.38;100.00
21644;BME280;10983;51.982;9.226;2024-02-26T05:58:49;98610.06;;;3.27;100.00
21644;BME280;10983;51.982;9.226;2024-02-26T06:01:17;98613.50;;;3.28;100.00
21644;BME280;10983;51.982;9.226;2024-02-26T06:03:44;98613.94;;;3.42;100.00
21644;BME280;10983;51.982;9.226;2024-02-26T06:06:13;98617.72;;;3.46;100.00
21644;BME280;10983;51.982;9.226;2024-02-26T06:08:43;98620.41;;;3.58;100.00
21644;BME280;10983;51.982;9.226;2024-02-26T06:11:10;98622.47;;;3.56;100.00
21644;BME280;10983;51.982;9.226;2024-02-26T06:13:38;98622.69;;;3.54;100.00
21644;BME280;10983;51.982;9.226;2024-02-26T06:16:07;98628.28;;;3.58;100.00
21644;BME280;10983;51.982;9.226;2024-02-26T06:18:35;98625.66;;;3.58;100.00
21644;BME280;10983;51.982;9.226;2024-02-26T06:21:03;98631.72;;;3.58;100.00
21644;BME280;10983;51.982;9.226;2024-02-26T06:23:32;98630.47;;;3.61;100.00
21644;BME280;10983;51.982;9.226;2024-02-26T06:25:59;98628.19;;;3.64;100.00
21644;BME280;10983;51.982;9.226;2024-02-26T06:28:27;98632.84;;;3.62;100.00
21644;BME280;10983;51.982;9.226;2024-02-26T06:30:56;98634.91;;;3.60;100.00
21644;BME280;10983;51.982;9.226;2024-02-26T06:33:24;98643.19;;;3.64;100.00
21644;BME280;10983;51.982;9.226;2024-02-26T06:35:52;98632.03;;;3.80;100.00
21644;BME280;10983;51.982;9.226;2024-02-26T06:38:19;98633.47;;;3.93;100.00
21644;BME280;10983;51.982;9.226;2024-02-26T06:40:48;98640.25;;;4.01;100.00
21644;BME280;10983;51.982;9.226;2024-02-26T06:43:16;98639.66;;;3.99;100.00
21644;BME280;10983;51.982;9.226;2024-02-26T06:45:43;98644.22;;;4.03;100.00
21644;BME280;10983;51.982;9.226;2024-02-26T06:48:11;98646.44;;;4.06;100.00
21644;BME280;10983;51.982;9.226;2024-02-26T06:50:39;98645.88;;;4.16;100.00
21644;BME280;10983;51.982;9.226;2024-02-26T06:53:07;98657.78;;;4.18;100.00
21644;BME280;10983;51.982;9.226;2024-02-26T06:55:35;98658.25;;;4.27;100.00
21644;BME280;10983;51.982;9.226;2024-02-26T06:58:05;98665.13;;;4.28;100.00
21644;BME280;10983;51.982;9.226;2024-02-26T07:00:32;98667.53;;;4.29;100.00
21644;BME280;10983;51.982;9.226;2024-02-26T07:03:00;98685.41;;;4.39;100.00
21644;BME280;10983;51.982;9.226;2024-02-26T07:05:28;98689.06;;;4.38;100.00
21644;BME280;10983;51.982;9.226;2024-02-26T07:07:56;98693.53;;;4.48;100.00
21644;BME280;10983;51.982;9.226;2024-02-26T07:10:24;98707.78;;;4.70;100.00
21644;BME280;10983;51.982;9.226;2024-02-26T07:12:51;98716.16;;;4.79;100.00
21644;BME280;10983;51.982;9.226;2024-02-26T07:15:20;98728.75;;;4.88;100.00
21644;BME280;10983;51.982;9.226;2024-02-26T07:17:47;98739.28;;;4.88;100.00
21644;BME280;10983;51.982;9.226;2024-02-26T07:20:15;98745.34;;;4.89;100.00
21644;BME280;10983;51.982;9.226;2024-02-26T07:22:44;98740.53;;;4.86;100.00
21644;BME280;10983;51.982;9.226;2024-02-26T07:25:11;98749.72;;;4.95;100.00
21644;BME280;10983;51.982;9.226;2024-02-26T07:27:40;98755.78;;;4.95;100.00
21644;BME280;10983;51.982;9.226;2024-02-26T07:30:08;98759.22;;;5.07;100.00
21644;BME280;10983;51.982;9.226;2024-02-26T07:32:38;98754.06;;;5.00;100.00
21644;BME280;10983;51.982;9.226;2024-02-26T07:35:05;98755.22;;;5.04;100.00
21644;BME280;10983;51.982;9.226;2024-02-26T07:37:33;98760.03;;;5.19;100.00
21644;BME280;10983;51.982;9.226;2024-02-26T07:40:01;98762.44;;;5.20;100.00
21644;BME280;10983;51.982;9.226;2024-02-26T07:42:29;98780.66;;;5.22;100.00
21644;BME280;10983;51.982;9.226;2024-02-26T07:44:57;98788.56;;;5.45;100.00
21644;BME280;10983;51.982;9.226;2024-02-26T07:47:24;98793.50;;;5.53;100.00
21644;BME280;10983;51.982;9.226;2024-02-26T07:49:53;98800.47;;;5.70;100.00
21644;BME280;10983;51.982;9.226;2024-02-26T07:52:21;98799.81;;;5.86;100.00
21644;BME280;10983;51.982;9.226;2024-02-26T07:54:49;98810.78;;;6.06;100.00
21644;BME280;10983;51.982;9.226;2024-02-26T07:57:16;98821.88;;;6.19;100.00
21644;BME280;10983;51.982;9.226;2024-02-26T07:59:44;98834.34;;;6.35;100.00
21644;BME280;10983;51.982;9.226;2024-02-26T08:02:16;98848.31;;;6.58;100.00
21644;BME280;10983;51.982;9.226;2024-02-26T08:04:43;98862.09;;;6.76;100.00
21644;BME280;10983;51.982;9.226;2024-02-26T08:07:12;98872.28;;;6.84;100.00
21644;BME280;10983;51.982;9.226;2024-02-26T08:09:41;98888.59;;;6.93;100.00
21644;BME280;10983;51.982;9.226;2024-02-26T08:12:08;98894.06;;;7.03;100.00
21644;BME280;10983;51.982;9.226;2024-02-26T08:14:36;98902.63;;;7.10;100.00
21644;BME280;10983;51.982;9.226;2024-02-26T08:17:04;98913.66;;;7.18;100.00
21644;BME280;10983;51.982;9.226;2024-02-26T08:19:33;98913.88;;;7.17;100.00
21644;BME280;10983;51.982;9.226;2024-02-26T08:22:02;98928.25;;;7.37;100.00
21644;BME280;10983;51.982;9.226;2024-02-26T08:24:32;98937.19;;;7.47;100.00
21644;BME280;10983;51.982;9.226;2024-02-26T08:26:59;98946.94;;;7.63;100.00
21644;BME280;10983;51.982;9.226;2024-02-26T08:29:27;98947.47;;;7.77;100.00
21644;BME280;10983;51.982;9.226;2024-02-26T08:31:54;98961.97;;;7.74;100.00
21644;BME280;10983;51.982;9.226;2024-02-26T08:34:21;98976.34;;;7.78;100.00
21644;BME280;10983;51.982;9.226;2024-02-26T08:36:49;98972.81;;;7.89;100.00
21644;BME280;10983;51.982;9.226;2024-02-26T08:39:17;98983.53;;;7.99;100.00
21644;BME280;10983;51.982;9.226;2024-02-26T08:41:46;98983.63;;;8.04;100.00
21644;BME280;10983;51.982;9.226;2024-02-26T08:44:14;99006.34;;;8.16;100.00
21644;BME280;10983;51.982;9.226;2024-02-26T08:46:42;99010.84;;;8.32;100.00
21644;BME280;10983;51.982;9.226;2024-02-26T08:49:10;99005.78;;;8.47;100.00
21644;BME280;10983;51.982;9.226;2024-02-26T08:51:41;99015.88;;;8.66;100.00
21644;BME280;10983;51.982;9.226;2024-02-26T08:54:09;99013.22;;;8.66;100.00
21644;BME280;10983;51.982;9.226;2024-02-26T08:56:36;99015.66;;;8.89;100.00
21644;BME280;10983;51.982;9.226;2024-02-26T08:59:05;99019.16;;;8.94;100.00
21644;BME280;10983;51.982;9.226;2024-02-26T09:01:32;99021.88;;;8.99;100.00
21644;BME280;10983;51.982;9.226;2024-02-26T09:04:01;99024.72;;;9.14;100.00
21644;BME280;10983;51.982;9.226;2024-02-26T09:06:31;99038.66;;;9.05;100.00
21644;BME280;10983;51.982;9.226;2024-02-26T09:08:58;99041.69;;;9.13;100.00
21644;BME280;10983;51.982;9.226;2024-02-26T09:11:27;99048.16;;;9.44;100.00
21644;BME280;10983;51.982;9.226;2024-02-26T09:13:55;99051.50;;;9.34;100.00
21644;BME280;10983;51.982;9.226;2024-02-26T09:16:24;99056.13;;;9.44;100.00
21644;BME280;10983;51.982;9.226;2024-02-26T09:18:51;99046.59;;;9.69;100.00
21644;BME280;10983;51.982;9.226;2024-02-26T09:21:19;99055.03;;;9.92;100.00
21644;BME280;10983;51.982;9.226;2024-02-26T09:23:50;99053.25;;;9.98;100.00
21644;BME280;10983;51.982;9.226;2024-02-26T09:26:17;99063.75;;;10.40;100.00
21644;BME280;10983;51.982;9.226;2024-02-26T09:28:45;99068.25;;;10.71;100.00
21644;BME280;10983;51.982;9.226;2024-02-26T09:31:13;99074.88;;;10.73;100.00
21644;BME280;10983;51.982;9.226;2024-02-26T09:33:44;99083.94;;;10.72;100.00
21644;BME280;10983;51.982;9.226;2024-02-26T09:36:12;99078.31;;;10.33;100.00
21644;BME280;10983;51.982;9.226;2024-02-26T09:38:40;99085.16;;;10.60;100.00
21644;BME280;10983;51.982;9.226;2024-02-26T09:41:21;99097.78;;;10.74;100.00
21644;BME280;10983;51.982;9.226;2024-02-26T09:43:52;99110.06;;;10.85;100.00
21644;BME280;10983;51.982;9.226;2024-02-26T09:46:23;99116.75;;;10.88;100.00
21644;BME280;10983;51.982;9.226;2024-02-26T09:48:53;99123.16;;;10.92;100.00
21644;BME280;10983;51.982;9.226;2024-02-26T09:53:54;99129.41;;;10.76;100.00
21644;BME280;10983;51.982;9.226;2024-02-26T09:56:26;99125.41;;;10.73;100.00
21644;BME280;10983;51.982;9.226;2024-02-26T09:58:56;99133.78;;;10.56;100.00
21644;BME280;10983;51.982;9.226;2024-02-26T10:01:25;99131.53;;;10.43;100.00
21644;BME280;10983;51.982;9.226;2024-02-26T10:03:59;99137.47;;;10.55;100.00
21644;BME280;10983;51.982;9.226;2024-02-26T10:06:27;99136.50;;;10.61;100.00
21644;BME280;10983;51.982;9.226;2024-02-26T10:08:55;99138.47;;;10.75;100.00
21644;BME280;10983;51.982;9.226;2024-02-26T10:11:26;99142.41;;;11.04;100.00
21644;BME280;10983;51.982;9.226;2024-02-26T10:13:59;99145.53;;;11.83;100.00
21644;BME280;10983;51.982;9.226;2024-02-26T10:16:28;99141.84;;;11.94;100.00
21644;BME280;10983;51.982;9.226;2024-02-26T10:18:58;99151.44;;;12.05;100.00
21644;BME280;10983;51.982;9.226;2024-02-26T10:21:26;99141.16;;;12.63;100.00
21644;BME280;10983;51.982;9.226;2024-02-26T10:23:55;99164.09;;;13.23;100.00
21644;BME280;10983;51.982;9.226;2024-02-26T10:26:22;99173.72;;;12.99;100.00
21644;BME280;10983;51.982;9.226;2024-02-26T10:28:53;99177.22;;;12.90;100.00
21644;BME280;10983;51.982;9.226;2024-02-26T10:31:21;99181.19;;;13.07;100.00
21644;BME280;10983;51.982;9.226;2024-02-26T10:33:50;99172.03;;;13.53;100.00
21644;BME280;10983;51.982;9.226;2024-02-26T10:36:27;99186.28;;;13.19;100.00
21644;BME280;10983;51.982;9.226;2024-02-26T10:39:13;99199.38;;;13.05;100.00
21644;BME280;10983;51.982;9.226;2024-02-26T10:41:42;99192.69;;;13.18;100.00
21644;BME280;10983;51.982;9.226;2024-02-26T10:44:11;99195.09;;;13.09;100.00
21644;BME280;10983;51.982;9.226;2024-02-26T10:46:46;99205.72;;;13.34;100.00
21644;BME280;10983;51.982;9.226;2024-02-26T10:49:15;99199.81;;;13.67;100.00
21644;BME280;10983;51.982;9.226;2024-02-26T10:51:52;99206.59;;;14.17;100.00
21644;BME280;10983;51.982;9.226;2024-02-26T10:54:23;99202.72;;;14.43;100.00
21644;BME280;10983;51.982;9.226;2024-02-26T10:56:53;99209.91;;;14.48;100.00
21644;BME280;10983;51.982;9.226;2024-02-26T10:59:23;99210.34;;;14.11;100.00
21644;BME280;10983;51.982;9.226;2024-02-26T11:01:51;99220.31;;;13.91;100.00
21644;BME280;10983;51.982;9.226;2024-02-26T11:04:20;99214.50;;;13.59;100.00
21644;BME280;10983;51.982;9.226;2024-02-26T11:06:51;99232.16;;;13.41;100.00
21644;BME280;10983;51.982;9.226;2024-02-26T11:09:20;99244.19;;;13.03;100.00
21644;BME280;10983;51.982;9.226;2024-02-26T11:11:50;99239.13;;;13.17;100.00
21644;BME280;10983;51.982;9.226;2024-02-26T11:14:21;99243.13;;;13.19;100.00
21644;BME280;10983;51.982;9.226;2024-02-26T11:16:50;99240.94;;;12.82;100.00
21644;BME280;10983;51.982;9.226;2024-02-26T11:19:19;99238.78;;;12.59;100.00
21644;BME280;10983;51.982;9.226;2024-02-26T11:21:47;99225.97;;;12.66;100.00
21644;BME280;10983;51.982;9.226;2024-02-26T11:24:17;99231.78;;;12.43;100.00
21644;BME280;10983;51.982;9.226;2024-02-26T11:26:50;99238.19;;;12.42;100.00
21644;BME280;10983;51.982;9.226;2024-02-26T11:29:28;99235.03;;;12.55;100.00
21644;BME280;10983;51.982;9.226;2024-02-26T11:31:58;99244.63;;;12.71;100.00
21644;BME280;10983;51.982;9.226;2024-02-26T11:34:27;99236.13;;;12.84;100.00
21644;BME280;10983;51.982;9.226;2024-02-26T11:36:56;99254.31;;;12.91;100.00
21644;BME280;10983;51.982;9.226;2024-02-26T11:39:25;99242.25;;;12.69;100.00
21644;BME280;10983;51.982;9.226;2024-02-26T11:41:54;99255.69;;;13.14;100.00
21644;BME280;10983;51.982;9.226;2024-02-26T11:44:30;99249.25;;;13.40;100.00
21644;BME280;10983;51.982;9.226;2024-02-26T11:47:00;99254.63;;;13.15;100.00
21644;BME280;10983;51.982;9.226;2024-02-26T11:49:37;99247.31;;;12.71;100.00
21644;BME280;10983;51.982;9.226;2024-02-26T11:52:07;99251.13;;;12.85;100.00
21644;BME280;10983;51.982;9.226;2024-02-26T11:54:56;99257.78;;;12.87;100.00
21644;BME280;10983;51.982;9.226;2024-02-26T11:57:26;99248.69;;;12.83;100.00
21644;BME280;10983;51.982;9.226;2024-02-26T11:59:57;99252.31;;;12.42;100.00
21644;BME280;10983;51.982;9.226;2024-02-26T12:02:41;99242.47;;;12.43;100.00
21644;BME280;10983;51.982;9.226;2024-02-26T12:05:12;99246.19;;;12.52;100.00
21644;BME280;10983;51.982;9.226;2024-02-26T12:07:43;99252.56;;;12.31;100.00
21644;BME280;10983;51.982;9.226;2024-02-26T12:10:21;99249.59;;;12.28;100.00
21644;BME280;10983;51.982;9.226;2024-02-26T12:12:58;99253.13;;;12.43;100.00
21644;BME280;10983;51.982;9.226;2024-02-26T12:15:32;99249.47;;;12.79;100.00
21644;BME280;10983;51.982;9.226;2024-02-26T12:18:01;99251.78;;;12.50;100.00
21644;BME280;10983;51.982;9.226;2024-02-26T12:20:30;99259.06;;;12.70;100.00
21644;BME280;10983;51.982;9.226;2024-02-26T12:22:58;99259.59;;;12.67;100.00
21644;BME280;10983;51.982;9.226;2024-02-26T12:25:31;99253.06;;;12.33;100.00
21644;BME280;10983;51.982;9.226;2024-02-26T12:27:59;99257.69;;;12.52;100.00
21644;BME280;10983;51.982;9.226;2024-02-26T12:30:27;99250.16;;;12.34;100.00
21644;BME280;10983;51.982;9.226;2024-02-26T12:32:56;99242.16;;;12.34;100.00
21644;BME280;10983;51.982;9.226;2024-02-26T12:35:26;99248.53;;;12.29;100.00
21644;BME280;10983;51.982;9.226;2024-02-26T12:37:55;99252.47;;;12.11;100.00
21644;BME280;10983;51.982;9.226;2024-02-26T12:40:25;99261.63;;;11.79;100.00
21644;BME280;10983;51.982;9.226;2024-02-26T12:42:56;99262.88;;;11.67;100.00
21644;BME280;10983;51.982;9.226;2024-02-26T12:45:25;99252.81;;;11.74;100.00
21644;BME280;10983;51.982;9.226;2024-02-26T12:47:55;99257.56;;;12.18;100.00
21644;BME280;10983;51.982;9.226;2024-02-26T12:50:23;99272.94;;;12.01;100.00
21644;BME280;10983;51.982;9.226;2024-02-26T12:52:53;99259.72;;;11.75;100.00
21644;BME280;10983;51.982;9.226;2024-02-26T12:55:20;99252.78;;;11.69;100.00
21644;BME280;10983;51.982;9.226;2024-02-26T12:57:48;99262.06;;;11.66;100.00
21644;BME280;10983;51.982;9.226;2024-02-26T13:00:25;99261.63;;;11.79;100.00
21644;BME280;10983;51.982;9.226;2024-02-26T13:02:59;99268.75;;;11.69;100.00
21644;BME280;10983;51.982;9.226;2024-02-26T13:05:29;99259.72;;;11.38;100.00